Аэропорт: Оренбург-Центральный. Оренбург

ICAO: UWOO

METAR:
2019/03/26 13:00
UWOO 261300Z 20004MPS CAVOK 05/M03 Q1021 R26/120053 NOSIG RMK QFE755/1007
METAR:
2019/03/26 12:21
TAF UWOO 261048Z 2612/2712 25006G12MPS 3100 BR BKN011 TX06/2709Z TNM04/2703Z 
      TEMPO 2615/2706 18003G08MPS 0500 FZFG VV003 
      TEMPO 2706/2712 14004G09MPS